This is the latest recevied weather packets stored in our database for station/object OK1TBF-6. If no packets are shown the sender has not sent any weather packets the latest 10 day(s).
| Time | Temp. | Humidity | Pressure | Rain* | Wind** | Luminosity | Snow |
|---|---|---|---|---|---|---|---|
| 1777634139 | 16.67° C | 45% | 1018.1 hPa | 0 mm | - | - | - |
| 1777633240 | 16.11° C | 44% | 1018.4 hPa | 0 mm | - | - | - |
| 1777631737 | 15.56° C | 47% | 1018.3 hPa | 0 mm | - | - | - |
| 1777626336 | 13.89° C | 51% | 1019 hPa | 0 mm | - | - | - |
| 1777626039 | 13.33° C | 50% | 1019 hPa | 0 mm | - | - | - |
| 1777625137 | 12.78° C | 52% | 1018.9 hPa | 0 mm | - | - | - |
| 1777623637 | 12.22° C | 53% | 1019.1 hPa | 0 mm | - | - | - |
| 1777623337 | 12.22° C | 55% | 1019.2 hPa | 0 mm | - | - | - |
| 1777622736 | 11.67° C | 57% | 1019.3 hPa | 0 mm | - | - | - |
| 1777621836 | 10.56° C | 59% | 1019.2 hPa | 0 mm | - | - | - |
| 1777620036 | 10° C | 60% | 1019.4 hPa | 0 mm | - | - | - |
| 1777619737 | 9.44° C | 60% | 1019.3 hPa | 0 mm | - | - | - |
| 1777617936 | 9.44° C | 59% | 1019.2 hPa | 0 mm | - | - | - |
| 1777616437 | 8.89° C | 60% | 1019 hPa | 0 mm | - | - | - |
| 1777616136 | 8.89° C | 61% | 1019.3 hPa | 0 mm | - | - | - |
| 1777615836 | 8.89° C | 59% | 1019 hPa | 0 mm | - | - | - |
| 1777612835 | 7.78° C | 60% | 1019.1 hPa | 0 mm | - | - | - |
| 1777607435 | 7.22° C | 58% | 1019.1 hPa | 0 mm | - | - | - |
| 1777606834 | 7.22° C | 58% | 1018.8 hPa | 0 mm | - | - | - |
| 1777606534 | 7.22° C | 58% | 1018.9 hPa | 0 mm | - | - | - |
| 1777605034 | 7.78° C | 57% | 1018.8 hPa | 0 mm | - | - | - |
| 1777599933 | 7.78° C | 57% | 1018.9 hPa | 0 mm | - | - | - |
| 1777598733 | 7.78° C | 56% | 1019.2 hPa | 0 mm | - | - | - |
| 1777598432 | 7.78° C | 55% | 1019.1 hPa | 0 mm | - | - | - |
| 1777598133 | 7.78° C | 58% | 1019 hPa | 0 mm | - | - | - |
* Rain latest hour (hover to see other rain measurements)
** Current wind speed in m/s (hover to see current wind gust speed)